Archival Weather

South Haven Area Rgnl

South Haven, Michigan (KLWA)

Report from: Tuesday, September 19, 2023 12:35 AM EDT
Current time: Tuesday, July 16, 2024 11:11 AM EDT

Current weather – Weather history – Daily summaries
Weather forecast

Temperature9.6°C (49.3°F)
Dew point9.0°C (48.2°F)
Winds Calm
Visibility10 mi. (16.1 km)
Clouds Sky clear
Altimeter30.06 in.Hg (1018 mB)
Relative humidity96 %
Density altitude-642 ft. (-196 m)
Remarks Fully automated report
Automated weather observing station with precipitation discriminator
Flight conditions Visual Meteorological Conditions
Raw dataKLWA 190435Z AUTO 00000KT 10SM CLR 10/09 A3006 RMK AO2 T00960090
An error has occurred. This application may no longer respond until reloaded. Reload 🗙